Indianapolis, Indiana
Traffic Map
Current Weather Conditions
Indianapolis, Indiana
Few Clouds
Few Clouds
21°
Feels Like: 21°
Wind Chill: 21° Ceiling: Unl
Heat Index: 21° Visibility: 10mi
Dew Point: 10° Wind: 7mph
Humidity: 49% Direction: 10° (N)
Pressure: 30.06in Gusts: 0mph
Raw Report DataKIND 250054Z 01006KT 10SM FEW055 FEW250 21/10 A3006 RMK AO2 SLP173 T02110100
Traffic Incident Summary
Active as of:
Severity:
Category:
InformationThere was an issue retrieving the traffic information for this location. Please try a different location or try again shortly.
Advertisements
Track Severe Weather on mobile